Vasiliy Bozhenko — URHP — position and weather

sailwx.info

Track history (hours):
 
Tides and Currents Weather Stations Pressure Air Temp Water Temp Dewpoint Dewpoint Depression Visibility Wind Speed Wind Dir Waves Ship Positions

Vasiliy Bozhenko

Last reported at 2017-Jan-15 15:08 UTC. Time now 2017-Jan-17 15:09 UTC.
Position N 46°19' E 030°55'.

Length 114 m; draft 3.8 m.

Type: Cargo ship. MMSI: 272085000.

Date/timePositionNaut miles runAvg speedWind from/ knotsBaromVisibWave heightAir tempDewpointWater temp
2017-Jan-15 15:08N 46°19' E 030°55'5 7.6
2017-Jan-15 14:33N 46°23' E 030°55'8 7.6
2017-Jan-15 13:34N 46°31' E 030°55'7 7.1
2017-Jan-15 12:33N 46°34' E 031°04'7 7.5
2017-Jan-15 11:33N 46°35' E 031°15'20 6.5
2017-Jan-15 08:31N 46°36' E 031°44'6 6.4
2017-Jan-15 07:32N 46°37' E 031°53'6 5.9
2017-Jan-15 06:33N 46°43' E 031°56'6 5.9
2017-Jan-15 05:33N 46°48' E 031°53'6 6.4
2017-Jan-15 04:33N 46°53' E 031°60'3 3.3
2017-Jan-15 03:33N 46°56' E 031°60'0 0.0
2017-Jan-15 02:26N 46°56' E 031°60'0 0.0
2017-Jan-15 01:26N 46°56' E 031°60'0 0.0
2017-Jan-15 00:30N 46°56' E 031°60'0 0.0
2017-Jan-14 23:30N 46°56' E 031°60'0 0.0
2017-Jan-14 22:28N 46°56' E 031°60'0 0.0
2017-Jan-14 21:28N 46°56' E 031°60'0 0.0
2017-Jan-14 20:28N 46°56' E 031°60'0 0.0
2017-Jan-14 19:32N 46°56' E 031°60'0 0.0
2017-Jan-14 18:33N 46°56' E 031°60'0 0.0
2017-Jan-14 17:33N 46°56' E 031°60'0 0.0
2017-Jan-14 16:33N 46°56' E 031°60'0 0.0
2017-Jan-14 15:33N 46°56' E 031°60'0 0.0
2017-Jan-14 14:29N 46°56' E 031°60'0 0.0
2017-Jan-14 13:33N 46°56' E 031°60'0 0.1
2017-Jan-14 12:33N 46°56' E 031°60'2 1.6
2017-Jan-14 11:33N 46°56' E 031°57'0 0.0
2017-Jan-14 10:15N 46°56' E 031°57'0 0.0
2017-Jan-14 09:27N 46°56' E 031°57'0 0.0
2017-Jan-14 08:29N 46°56' E 031°57'0 0.0
2017-Jan-14 07:26N 46°56' E 031°57'0 0.0
2017-Jan-14 06:32N 46°56' E 031°57'0 0.0
2017-Jan-14 05:27N 46°56' E 031°57'0 0.0
2017-Jan-14 04:28N 46°56' E 031°57'0 0.0
2017-Jan-14 03:33N 46°56' E 031°57'0 0.0
2017-Jan-13 23:30N 46°56' E 031°57'0 0.0
2017-Jan-13 22:30N 46°56' E 031°57'0 0.0
2017-Jan-13 21:33N 46°56' E 031°57'0 0.0
2017-Jan-13 20:28N 46°56' E 031°57'0 0.0
2017-Jan-13 19:28N 46°56' E 031°57'0 0.0
2017-Jan-13 18:31N 46°56' E 031°57'0 0.0
2017-Jan-13 17:31N 46°56' E 031°57'0 0.0
2017-Jan-13 16:26N 46°56' E 031°57'0 0.0
2017-Jan-13 15:32N 46°56' E 031°57'0 0.0
2017-Jan-13 14:31N 46°56' E 031°57'0 0.0
2017-Jan-13 13:33N 46°56' E 031°57'0 0.0
2017-Jan-13 12:33N 46°56' E 031°57'0 0.0
2017-Jan-13 11:33N 46°56' E 031°57'0 0.0
2017-Jan-13 10:31N 46°56' E 031°57'0 0.0
2017-Jan-13 09:28N 46°56' E 031°57'0 0.0
2017-Jan-13 08:33N 46°56' E 031°57'0 0.0
2017-Jan-13 07:33N 46°56' E 031°57'0 0.0
2017-Jan-13 06:33N 46°56' E 031°57'0 0.0
2017-Jan-13 05:28N 46°56' E 031°57'0 0.0
2017-Jan-13 04:31N 46°56' E 031°57'0 0.0
2017-Jan-13 03:31N 46°56' E 031°57'0 0.0
2017-Jan-13 02:31N 46°56' E 031°57'0 0.0
2017-Jan-13 01:31N 46°56' E 031°57'0 0.0
2017-Jan-13 00:15N 46°56' E 031°57'0 0.0
2017-Jan-12 23:33N 46°56' E 031°57'1 0.8
2017-Jan-12 22:33N 46°56' E 031°58'2 2.3
2017-Jan-12 21:33N 46°56' E 032°01'3 3.1
2017-Jan-12 20:33N 46°53' E 031°60'4 4.3
2017-Jan-12 19:33N 46°50' E 031°56'3 3.1
2017-Jan-12 18:33N 46°47' E 031°53'3 3.3
2017-Jan-12 17:33N 46°44' E 031°55'2 1.6
2017-Jan-12 16:33N 46°42' E 031°56'2 2.3
2017-Jan-12 15:33N 46°40' E 031°56'3 3.1
2017-Jan-12 14:33N 46°38' E 031°53'2 0.3
2017-Jan-12 08:33N 46°37' E 031°51'  
Track history (hours):
 
Tides and Currents Weather Stations Pressure Air Temp Water Temp Dewpoint Dewpoint Depression Visibility Wind Speed Wind Dir Waves Ship Positions

Vasiliy Bozhenko

Last reported at 2017-Jan-15 15:08 UTC. Time now 2017-Jan-17 15:09 UTC.
Position N 46°19' E 030°55'.

Length 114 m; draft 3.8 m.

Type: Cargo ship. MMSI: 272085000.

Date/timePositionNaut miles runAvg speedWind from/ knotsBaromVisibWave heightAir tempDewpointWater temp
2017-Jan-15 15:08N 46°19' E 030°55'5 7.6
2017-Jan-15 14:33N 46°23' E 030°55'8 7.6
2017-Jan-15 13:34N 46°31' E 030°55'7 7.1
2017-Jan-15 12:33N 46°34' E 031°04'7 7.5
2017-Jan-15 11:33N 46°35' E 031°15'20 6.5
2017-Jan-15 08:31N 46°36' E 031°44'6 6.4
2017-Jan-15 07:32N 46°37' E 031°53'6 5.9
2017-Jan-15 06:33N 46°43' E 031°56'6 5.9
2017-Jan-15 05:33N 46°48' E 031°53'6 6.4
2017-Jan-15 04:33N 46°53' E 031°60'3 3.3
2017-Jan-15 03:33N 46°56' E 031°60'0 0.0
2017-Jan-15 02:26N 46°56' E 031°60'0 0.0
2017-Jan-15 01:26N 46°56' E 031°60'0 0.0
2017-Jan-15 00:30N 46°56' E 031°60'0 0.0
2017-Jan-14 23:30N 46°56' E 031°60'0 0.0
2017-Jan-14 22:28N 46°56' E 031°60'0 0.0
2017-Jan-14 21:28N 46°56' E 031°60'0 0.0
2017-Jan-14 20:28N 46°56' E 031°60'0 0.0
2017-Jan-14 19:32N 46°56' E 031°60'0 0.0
2017-Jan-14 18:33N 46°56' E 031°60'0 0.0
2017-Jan-14 17:33N 46°56' E 031°60'0 0.0
2017-Jan-14 16:33N 46°56' E 031°60'0 0.0
2017-Jan-14 15:33N 46°56' E 031°60'0 0.0
2017-Jan-14 14:29N 46°56' E 031°60'0 0.0
2017-Jan-14 13:33N 46°56' E 031°60'0 0.1
2017-Jan-14 12:33N 46°56' E 031°60'2 1.6
2017-Jan-14 11:33N 46°56' E 031°57'0 0.0
2017-Jan-14 10:15N 46°56' E 031°57'0 0.0
2017-Jan-14 09:27N 46°56' E 031°57'0 0.0
2017-Jan-14 08:29N 46°56' E 031°57'0 0.0
2017-Jan-14 07:26N 46°56' E 031°57'0 0.0
2017-Jan-14 06:32N 46°56' E 031°57'0 0.0
2017-Jan-14 05:27N 46°56' E 031°57'0 0.0
2017-Jan-14 04:28N 46°56' E 031°57'0 0.0
2017-Jan-14 03:33N 46°56' E 031°57'0 0.0
2017-Jan-13 23:30N 46°56' E 031°57'0 0.0
2017-Jan-13 22:30N 46°56' E 031°57'0 0.0
2017-Jan-13 21:33N 46°56' E 031°57'0 0.0
2017-Jan-13 20:28N 46°56' E 031°57'0 0.0
2017-Jan-13 19:28N 46°56' E 031°57'0 0.0
2017-Jan-13 18:31N 46°56' E 031°57'0 0.0
2017-Jan-13 17:31N 46°56' E 031°57'0 0.0
2017-Jan-13 16:26N 46°56' E 031°57'0 0.0
2017-Jan-13 15:32N 46°56' E 031°57'0 0.0
2017-Jan-13 14:31N 46°56' E 031°57'0 0.0
2017-Jan-13 13:33N 46°56' E 031°57'0 0.0
2017-Jan-13 12:33N 46°56' E 031°57'0 0.0
2017-Jan-13 11:33N 46°56' E 031°57'0 0.0
2017-Jan-13 10:31N 46°56' E 031°57'0 0.0
2017-Jan-13 09:28N 46°56' E 031°57'0 0.0
2017-Jan-13 08:33N 46°56' E 031°57'0 0.0
2017-Jan-13 07:33N 46°56' E 031°57'0 0.0
2017-Jan-13 06:33N 46°56' E 031°57'0 0.0
2017-Jan-13 05:28N 46°56' E 031°57'0 0.0
2017-Jan-13 04:31N 46°56' E 031°57'0 0.0
2017-Jan-13 03:31N 46°56' E 031°57'0 0.0
2017-Jan-13 02:31N 46°56' E 031°57'0 0.0
2017-Jan-13 01:31N 46°56' E 031°57'0 0.0
2017-Jan-13 00:15N 46°56' E 031°57'0 0.0
2017-Jan-12 23:33N 46°56' E 031°57'1 0.8
2017-Jan-12 22:33N 46°56' E 031°58'2 2.3
2017-Jan-12 21:33N 46°56' E 032°01'3 3.1
2017-Jan-12 20:33N 46°53' E 031°60'4 4.3
2017-Jan-12 19:33N 46°50' E 031°56'3 3.1
2017-Jan-12 18:33N 46°47' E 031°53'3 3.3
2017-Jan-12 17:33N 46°44' E 031°55'2 1.6
2017-Jan-12 16:33N 46°42' E 031°56'2 2.3
2017-Jan-12 15:33N 46°40' E 031°56'3 3.1
2017-Jan-12 14:33N 46°38' E 031°53'2 0.3
2017-Jan-12 08:33N 46°37' E 031°51'  

Dump ship's entire track history